Dai7sineimaru — JD2631 — position and weather

sailwx.info

Track history (hours):
 
Tides and Currents Weather Stations Pressure Air Temp Water Temp Dewpoint Dewpoint Depression Visibility Wind Speed Wind Dir Waves Ship Positions

Dai7sineimaru

Last reported at 2017-Nov-16 05:19 UTC. Time now 2017-Nov-18 17:54 UTC.
Position N 34°36' E 134°55'.

Length 73 m; draft 3.9 m.

MMSI: 431000488.

Date/timePositionNaut miles runAvg speedWind from/ knotsBaromVisibWave heightAir tempDewpointWater temp
2017-Nov-16 05:19N 34°36' E 134°55'510.1
2017-Nov-16 04:47N 34°37' E 135°02'3 8.9
2017-Nov-16 04:30N 34°36' E 135°04'611.8
2017-Nov-16 04:00N 34°37' E 135°12'611.4
2017-Nov-16 03:30N 34°39' E 135°18'2 4.0
2017-Nov-16 03:00N 34°41' E 135°17'0 0.0
2017-Nov-16 02:30N 34°41' E 135°17'0 0.3
2017-Nov-16 02:00N 34°41' E 135°17'1 2.8
2017-Nov-16 01:29N 34°41' E 135°19'0 0.1
2017-Nov-16 01:00N 34°41' E 135°19'0 0.1
2017-Nov-16 00:30N 34°41' E 135°19'0 0.0
2017-Nov-16 00:00N 34°41' E 135°19'0 0.1
2017-Nov-15 23:30N 34°41' E 135°19'0 0.1
2017-Nov-15 23:00N 34°41' E 135°19'0 0.1
2017-Nov-15 22:30N 34°41' E 135°19'0 0.0
2017-Nov-15 22:00N 34°41' E 135°19'0 0.0
2017-Nov-15 21:30N 34°41' E 135°19'0 0.0
2017-Nov-15 21:00N 34°41' E 135°19'0 0.0
2017-Nov-15 20:30N 34°41' E 135°19'0 0.1
2017-Nov-15 20:00N 34°41' E 135°19'4 8.2
2017-Nov-15 19:30N 34°38' E 135°16'612.8
2017-Nov-15 19:00N 34°35' E 135°09'612.8
2017-Nov-15 18:30N 34°37' E 135°01'27 0.7
2017-Nov-14 03:46N 34°10' E 134°57'312.7
2017-Nov-14 03:30N 34°10' E 135°01'  
2017-Nov-11 19:50N 33°60' E 135°01'412.1
2017-Nov-11 19:29N 34°04' E 135°00'612.1
2017-Nov-11 19:00N 34°10' E 134°60'1311.6
2017-Nov-11 17:55N 34°22' E 134°59'511.2
2017-Nov-11 17:29N 34°27' E 135°01'511.2
2017-Nov-11 17:00N 34°32' E 135°02'5 9.1
2017-Nov-11 16:30N 34°37' E 135°01'  
Track history (hours):
 
Tides and Currents Weather Stations Pressure Air Temp Water Temp Dewpoint Dewpoint Depression Visibility Wind Speed Wind Dir Waves Ship Positions

Dai7sineimaru

Last reported at 2017-Nov-16 05:19 UTC. Time now 2017-Nov-18 17:54 UTC.
Position N 34°36' E 134°55'.

Length 73 m; draft 3.9 m.

MMSI: 431000488.

Date/timePositionNaut miles runAvg speedWind from/ knotsBaromVisibWave heightAir tempDewpointWater temp
2017-Nov-16 05:19N 34°36' E 134°55'510.1
2017-Nov-16 04:47N 34°37' E 135°02'3 8.9
2017-Nov-16 04:30N 34°36' E 135°04'611.8
2017-Nov-16 04:00N 34°37' E 135°12'611.4
2017-Nov-16 03:30N 34°39' E 135°18'2 4.0
2017-Nov-16 03:00N 34°41' E 135°17'0 0.0
2017-Nov-16 02:30N 34°41' E 135°17'0 0.3
2017-Nov-16 02:00N 34°41' E 135°17'1 2.8
2017-Nov-16 01:29N 34°41' E 135°19'0 0.1
2017-Nov-16 01:00N 34°41' E 135°19'0 0.1
2017-Nov-16 00:30N 34°41' E 135°19'0 0.0
2017-Nov-16 00:00N 34°41' E 135°19'0 0.1
2017-Nov-15 23:30N 34°41' E 135°19'0 0.1
2017-Nov-15 23:00N 34°41' E 135°19'0 0.1
2017-Nov-15 22:30N 34°41' E 135°19'0 0.0
2017-Nov-15 22:00N 34°41' E 135°19'0 0.0
2017-Nov-15 21:30N 34°41' E 135°19'0 0.0
2017-Nov-15 21:00N 34°41' E 135°19'0 0.0
2017-Nov-15 20:30N 34°41' E 135°19'0 0.1
2017-Nov-15 20:00N 34°41' E 135°19'4 8.2
2017-Nov-15 19:30N 34°38' E 135°16'612.8
2017-Nov-15 19:00N 34°35' E 135°09'612.8
2017-Nov-15 18:30N 34°37' E 135°01'27 0.7
2017-Nov-14 03:46N 34°10' E 134°57'312.7
2017-Nov-14 03:30N 34°10' E 135°01'  
2017-Nov-11 19:50N 33°60' E 135°01'412.1
2017-Nov-11 19:29N 34°04' E 135°00'612.1
2017-Nov-11 19:00N 34°10' E 134°60'1311.6
2017-Nov-11 17:55N 34°22' E 134°59'511.2
2017-Nov-11 17:29N 34°27' E 135°01'511.2
2017-Nov-11 17:00N 34°32' E 135°02'5 9.1
2017-Nov-11 16:30N 34°37' E 135°01'  

Dump ship's entire track history